Time;durP1;ratioP1;P1;durP2;ratioP2;P2;SDS_P1;SDS_P2;PMS_P1;PMS_P2;Temp;Humidity;BMP_temperature;BMP_pressure;BME280_temperature;BME280_humidity;BME280_pressure;Samples;Min_cycle;Max_cycle;Signal;HPM_P1;HPM_P2
2022/10/09 00:00:45;;;;;;;4.83;2.23;;;7.90;99.90;;;;;;5051719;28;20927;-75
2022/10/09 00:03:12;;;;;;;5.93;3.57;;;7.90;99.90;;;;;;5051925;28;20489;-75
2022/10/09 00:05:38;;;;;;;4.93;3.83;;;7.90;99.90;;;;;;5050841;28;20977;-74
2022/10/09 00:08:03;;;;;;;5.80;3.30;;;7.90;99.90;;;;;;5051101;28;20422;-73
2022/10/09 00:10:29;;;;;;;5.33;3.20;;;7.80;99.90;;;;;;5050952;28;20416;-73
2022/10/09 00:12:55;;;;;;;8.97;3.10;;;7.90;99.90;;;;;;5050710;28;20350;-73
2022/10/09 00:15:22;;;;;;;6.80;3.20;;;7.80;99.90;;;;;;5050667;28;20434;-73
2022/10/09 00:17:47;;;;;;;8.73;2.67;;;7.80;99.90;;;;;;5050414;28;20517;-73
2022/10/09 00:20:13;;;;;;;6.33;3.53;;;7.70;99.90;;;;;;5050591;28;20576;-73
2022/10/09 00:22:39;;;;;;;8.73;3.13;;;7.70;99.90;;;;;;5050744;28;20257;-73
2022/10/09 00:25:05;;;;;;;6.10;2.23;;;7.70;99.90;;;;;;5050381;28;20199;-73
2022/10/09 00:27:31;;;;;;;4.47;2.50;;;7.60;99.90;;;;;;5049872;28;20208;-73
2022/10/09 00:29:56;;;;;;;4.93;2.10;;;7.60;99.90;;;;;;5049657;28;20428;-74
2022/10/09 00:32:22;;;;;;;6.63;2.40;;;7.60;99.90;;;;;;5048233;28;20192;-73
2022/10/09 00:34:48;;;;;;;3.73;2.03;;;7.60;99.90;;;;;;5049495;28;20563;-73
2022/10/09 00:37:13;;;;;;;6.40;2.33;;;7.70;99.90;;;;;;5048207;28;20449;-72
2022/10/09 00:39:39;;;;;;;7.43;3.30;;;7.70;99.90;;;;;;5049697;28;20185;-73
2022/10/09 00:42:05;;;;;;;6.50;2.87;;;7.70;99.90;;;;;;5049275;28;20262;-74
2022/10/09 00:44:56;;;;;;;10.87;6.00;;;7.60;99.90;;;;;;5049275;28;20208;-75
2022/10/09 00:47:34;;;;;;;25.33;9.90;;;7.60;99.90;;;;;;5049255;28;20187;-74
2022/10/09 00:50:14;;;;;;;10.93;5.50;;;7.60;99.90;;;;;;5047953;28;20422;-74
2022/10/09 00:52:40;;;;;;;9.10;4.57;;;7.70;99.90;;;;;;5049350;28;20414;-74
2022/10/09 00:55:08;;;;;;;9.63;3.30;;;7.70;99.90;;;;;;5049095;28;20594;-74
2022/10/09 00:57:34;;;;;;;8.27;3.67;;;7.80;99.90;;;;;;5048935;28;20517;-74
2022/10/09 01:00:03;;;;;;;12.33;3.20;;;7.80;99.90;;;;;;5049213;28;20423;-76
2022/10/09 01:02:29;;;;;;;9.20;3.13;;;7.90;99.90;;;;;;5048980;28;20421;-74
2022/10/09 01:04:54;;;;;;;7.47;3.63;;;7.90;99.90;;;;;;5047212;28;20961;-74
2022/10/09 01:07:23;;;;;;;7.97;3.80;;;7.90;99.90;;;;;;5049036;28;20214;-75
2022/10/09 01:10:03;;;;;;;11.17;4.20;;;7.80;99.90;;;;;;5048911;28;20577;-75
2022/10/09 01:12:39;;;;;;;10.13;4.83;;;7.80;99.90;;;;;;5049010;28;20414;-75
2022/10/09 01:15:18;;;;;;;8.23;3.77;;;7.80;99.90;;;;;;5047244;28;20445;-76
2022/10/09 01:17:53;;;;;;;8.30;3.80;;;7.80;99.90;;;;;;5048931;28;20798;-76
2022/10/09 01:20:43;;;;;;;9.10;4.93;;;7.70;99.90;;;;;;5048868;28;20518;-75
2022/10/09 01:23:37;;;;;;;9.70;4.00;;;7.70;99.90;;;;;;5048708;28;20430;-74
2022/10/09 01:26:36;;;;;;;11.47;3.70;;;7.80;99.90;;;;;;5049060;28;20447;-74
2022/10/09 01:29:06;;;;;;;6.77;3.13;;;7.80;99.90;;;;;;5047925;28;20420;-75
2022/10/09 01:31:37;;;;;;;9.60;3.90;;;7.80;99.90;;;;;;5048950;28;20620;-74
2022/10/09 01:34:04;;;;;;;7.33;3.43;;;7.80;99.90;;;;;;5047464;28;20446;-75
2022/10/09 01:36:30;;;;;;;10.27;4.30;;;7.80;99.90;;;;;;5048735;28;20446;-74
2022/10/09 01:39:01;;;;;;;8.97;4.07;;;7.80;99.90;;;;;;5048784;28;20435;-74
2022/10/09 01:41:27;;;;;;;6.87;3.50;;;7.70;99.90;;;;;;5048689;28;20420;-73
2022/10/09 01:43:53;;;;;;;7.33;3.60;;;7.70;99.90;;;;;;5048806;28;20447;-73
2022/10/09 01:46:30;;;;;;;12.40;4.37;;;7.70;99.90;;;;;;5048403;28;20843;-75
2022/10/09 01:49:02;;;;;;;9.23;4.63;;;7.70;99.90;;;;;;5046992;28;20180;-74
2022/10/09 01:51:35;;;;;;;8.23;4.60;;;7.80;99.90;;;;;;5048450;28;20460;-74
2022/10/09 01:54:08;;;;;;;16.90;5.37;;;7.70;99.90;;;;;;5048346;28;20490;-73
2022/10/09 01:56:37;;;;;;;15.40;4.20;;;7.70;99.90;;;;;;5048726;28;21267;-74
2022/10/09 01:59:10;;;;;;;7.77;4.00;;;7.70;99.90;;;;;;5048388;28;20525;-73
2022/10/09 02:01:38;;;;;;;6.80;3.50;;;7.80;99.90;;;;;;5048590;28;20412;-74
2022/10/09 02:04:08;;;;;;;17.07;5.00;;;7.80;99.90;;;;;;5046938;28;20909;-73
2022/10/09 02:06:37;;;;;;;8.43;4.57;;;7.80;99.90;;;;;;5048366;28;20498;-74
2022/10/09 02:09:06;;;;;;;6.37;4.17;;;7.80;99.90;;;;;;5048149;28;20561;-73
2022/10/09 02:11:34;;;;;;;15.20;3.60;;;7.90;99.90;;;;;;5048243;28;20449;-73
2022/10/09 02:13:59;;;;;;;8.23;3.73;;;7.70;99.90;;;;;;5048210;28;20543;-73
2022/10/09 02:16:50;;;;;;;9.70;4.00;;;7.70;99.90;;;;;;5046762;28;21018;-72
2022/10/09 02:19:21;;;;;;;4.10;3.30;;;7.80;99.90;;;;;;5048172;28;20207;-73
2022/10/09 02:21:59;;;;;;;9.67;3.90;;;7.90;99.90;;;;;;5048366;28;20410;-73
2022/10/09 02:24:25;;;;;;;9.30;3.50;;;8.00;99.90;;;;;;5048025;28;20452;-73
2022/10/09 02:26:56;;;;;;;10.77;3.53;;;7.80;99.90;;;;;;5048103;28;20470;-73
2022/10/09 02:29:22;;;;;;;13.33;3.97;;;7.80;99.90;;;;;;5046763;28;20502;-73
2022/10/09 02:31:47;;;;;;;9.93;3.60;;;7.70;99.90;;;;;;5047906;28;20872;-72
2022/10/09 02:34:17;;;;;;;8.33;4.43;;;7.60;99.90;;;;;;5047958;28;20203;-73
2022/10/09 02:36:42;;;;;;;14.37;4.77;;;7.60;99.90;;;;;;5047887;28;20234;-73
2022/10/09 02:39:08;;;;;;;12.37;4.10;;;7.60;99.90;;;;;;5048019;28;20422;-73
2022/10/09 02:41:35;;;;;;;9.23;4.30;;;7.60;99.90;;;;;;5051479;28;20594;-74
2022/10/09 02:44:01;;;;;;;8.63;4.20;;;7.60;99.90;;;;;;5051603;28;20442;-74
2022/10/09 02:46:26;;;;;;;11.93;4.50;;;7.50;99.90;;;;;;5050058;28;20478;-74
2022/10/09 02:48:52;;;;;;;12.53;4.53;;;7.50;99.90;;;;;;5051784;28;21074;-73
2022/10/09 02:51:19;;;;;;;7.77;4.97;;;7.50;99.90;;;;;;5051474;28;20191;-74
2022/10/09 02:53:44;;;;;;;14.07;4.50;;;7.40;99.90;;;;;;5051349;28;20923;-74
2022/10/09 02:56:10;;;;;;;10.67;4.67;;;7.40;99.90;;;;;;5051192;28;20425;-73
2022/10/09 02:58:36;;;;;;;21.00;5.10;;;7.40;99.90;;;;;;5051146;28;20283;-72
2022/10/09 03:01:03;;;;;;;5.13;4.07;;;7.40;99.90;;;;;;5051227;28;20274;-73
2022/10/09 03:03:29;;;;;;;10.83;5.67;;;7.30;99.90;;;;;;5049593;28;20473;-73
2022/10/09 03:06:03;;;;;;;12.93;6.40;;;7.20;99.90;;;;;;5051078;28;20460;-73
2022/10/09 03:08:30;;;;;;;9.57;4.60;;;7.20;99.90;;;;;;5051077;28;20187;-72
2022/10/09 03:10:56;;;;;;;8.70;4.73;;;7.10;99.90;;;;;;5051077;28;20416;-72
2022/10/09 03:13:21;;;;;;;7.80;4.87;;;7.10;99.90;;;;;;5050943;28;20426;-73
2022/10/09 03:15:47;;;;;;;8.10;4.70;;;7.00;99.90;;;;;;5049657;28;20492;-73
2022/10/09 03:18:12;;;;;;;9.80;5.00;;;7.00;99.90;;;;;;5051129;28;20183;-74
2022/10/09 03:20:38;;;;;;;11.70;5.90;;;6.90;99.90;;;;;;5049464;28;20208;-73
2022/10/09 03:23:04;;;;;;;5.40;3.80;;;6.90;99.90;;;;;;5050942;28;20190;-73
2022/10/09 03:25:29;;;;;;;10.50;4.70;;;6.90;99.90;;;;;;5050772;28;20208;-73
2022/10/09 03:27:55;;;;;;;6.50;4.63;;;6.90;99.90;;;;;;5050529;28;20287;-72
2022/10/09 03:30:20;;;;;;;7.50;5.00;;;6.80;99.90;;;;;;5032518;28;20186;-73
2022/10/09 03:32:46;;;;;;;9.13;4.23;;;6.80;99.90;;;;;;5049184;28;20188;-73
2022/10/09 03:35:12;;;;;;;9.93;4.83;;;6.70;99.90;;;;;;5050476;28;20211;-73
2022/10/09 03:37:37;;;;;;;8.77;4.40;;;6.70;99.90;;;;;;5049444;28;20679;-75
2022/10/09 03:40:04;;;;;;;10.43;4.20;;;6.70;99.90;;;;;;5049358;28;20273;-75
2022/10/09 03:42:29;;;;;;;5.70;4.10;;;6.80;99.90;;;;;;5049161;28;20696;-74
2022/10/09 03:44:56;;;;;;;7.60;3.40;;;6.80;99.90;;;;;;5049203;28;20442;-74
2022/10/09 03:47:22;;;;;;;10.57;4.13;;;6.80;99.90;;;;;;5049028;28;20213;-73
2022/10/09 03:49:47;;;;;;;8.33;4.50;;;6.80;99.90;;;;;;5051536;28;20428;-74
2022/10/09 03:52:13;;;;;;;8.63;4.40;;;6.80;99.90;;;;;;5047827;28;20188;-72
2022/10/09 03:54:38;;;;;;;7.57;3.90;;;6.80;99.90;;;;;;5050257;28;20585;-75
2022/10/09 03:57:04;;;;;;;9.87;4.30;;;6.80;99.90;;;;;;5050090;28;20216;-75
2022/10/09 03:59:29;;;;;;;10.77;4.50;;;6.80;99.90;;;;;;5048675;28;20195;-74
2022/10/09 04:01:55;;;;;;;6.83;3.70;;;6.80;99.90;;;;;;5048587;28;20192;-73
2022/10/09 04:04:20;;;;;;;7.17;3.93;;;6.80;99.90;;;;;;5048715;28;20295;-74
2022/10/09 04:06:46;;;;;;;5.40;3.93;;;6.80;99.90;;;;;;5050104;28;20548;-74
2022/10/09 04:09:11;;;;;;;3.40;3.10;;;6.80;99.90;;;;;;5050234;28;20234;-74
2022/10/09 04:11:37;;;;;;;5.87;3.50;;;6.80;99.90;;;;;;5048765;28;20181;-75
2022/10/09 04:14:03;;;;;;;3.60;3.20;;;6.90;99.90;;;;;;5050024;28;20677;-74
2022/10/09 04:16:28;;;;;;;7.93;3.30;;;6.90;99.90;;;;;;5050097;28;20615;-73
2022/10/09 04:18:54;;;;;;;5.50;3.47;;;6.90;99.90;;;;;;5050528;28;20662;-74
2022/10/09 04:21:20;;;;;;;8.40;3.67;;;6.80;99.90;;;;;;5050165;28;20188;-74
2022/10/09 04:23:45;;;;;;;3.80;2.90;;;6.90;99.90;;;;;;5050153;28;20233;-73
2022/10/09 04:26:12;;;;;;;7.60;3.33;;;6.90;99.90;;;;;;5050214;28;20208;-73
2022/10/09 04:28:37;;;;;;;3.40;3.00;;;6.90;99.90;;;;;;5050296;28;20676;-73
2022/10/09 04:31:03;;;;;;;6.00;3.43;;;7.00;99.90;;;;;;5050000;28;20432;-73
2022/10/09 04:33:29;;;;;;;7.70;3.00;;;7.00;99.90;;;;;;5050050;28;20272;-73
2022/10/09 04:35:56;;;;;;;8.30;3.47;;;7.10;99.90;;;;;;5050126;28;20184;-73
2022/10/09 04:38:22;;;;;;;3.73;3.00;;;7.00;99.90;;;;;;5050188;28;20931;-73
2022/10/09 04:41:05;;;;;;;5.23;3.73;;;7.10;99.90;;;;;;5049993;28;20778;-73
2022/10/09 04:43:32;;;;;;;6.90;3.57;;;7.10;99.90;;;;;;5048591;28;20416;-73
2022/10/09 04:45:57;;;;;;;10.00;3.40;;;7.00;99.90;;;;;;5049792;28;20463;-72
2022/10/09 04:48:23;;;;;;;9.70;4.17;;;7.00;99.90;;;;;;5048432;28;20911;-73
2022/10/09 04:50:49;;;;;;;7.40;3.70;;;7.00;99.90;;;;;;5049762;28;20184;-72
2022/10/09 04:53:15;;;;;;;8.50;3.40;;;7.00;99.90;;;;;;5049863;28;20430;-73
2022/10/09 04:55:42;;;;;;;4.63;2.83;;;6.90;99.90;;;;;;5049704;28;20200;-73
2022/10/09 04:58:09;;;;;;;11.43;3.00;;;6.90;99.90;;;;;;5049838;28;20460;-74
2022/10/09 05:00:42;;;;;;;9.60;3.70;;;6.80;99.90;;;;;;5049692;28;20430;-75
2022/10/09 05:03:08;;;;;;;5.87;3.10;;;6.80;99.90;;;;;;5049643;28;20426;-75
2022/10/09 05:05:34;;;;;;;7.17;2.90;;;6.80;99.90;;;;;;5049597;28;20962;-74
2022/10/09 05:08:00;;;;;;;6.03;3.70;;;6.80;99.90;;;;;;5049610;28;20422;-74
2022/10/09 05:10:25;;;;;;;6.57;4.10;;;6.70;99.90;;;;;;5049749;28;20200;-74
2022/10/09 05:12:51;;;;;;;4.20;3.60;;;6.70;99.90;;;;;;5049583;28;20185;-74
2022/10/09 05:15:18;;;;;;;3.87;3.30;;;6.70;99.90;;;;;;5049733;28;20286;-74
2022/10/09 05:17:44;;;;;;;5.60;3.60;;;6.70;99.90;;;;;;5049532;28;20753;-74
2022/10/09 05:20:09;;;;;;;6.17;3.50;;;6.60;99.90;;;;;;5049633;28;20473;-74
2022/10/09 05:22:35;;;;;;;4.57;3.20;;;6.60;99.90;;;;;;5048087;28;20172;-75
2022/10/09 05:25:00;;;;;;;5.00;3.30;;;6.50;99.90;;;;;;5049429;28;20203;-76
2022/10/09 05:27:26;;;;;;;9.50;4.67;;;6.40;99.90;;;;;;5049123;28;20242;-75
2022/10/09 05:29:51;;;;;;;5.70;3.70;;;6.40;99.90;;;;;;5049426;28;20726;-76
2022/10/09 05:32:17;;;;;;;10.63;3.60;;;6.50;99.90;;;;;;5049176;28;20182;-75
2022/10/09 05:34:43;;;;;;;10.50;4.53;;;6.50;99.90;;;;;;5049505;28;20202;-75
2022/10/09 05:37:08;;;;;;;8.80;3.60;;;6.40;99.90;;;;;;5047773;28;20187;-75
2022/10/09 05:39:37;;;;;;;6.70;3.70;;;6.20;99.90;;;;;;5047975;28;20208;-76
2022/10/09 05:42:03;;;;;;;8.30;4.10;;;6.30;99.90;;;;;;5046490;28;20188;-76
2022/10/09 05:44:28;;;;;;;7.43;4.10;;;6.20;99.90;;;;;;5047651;28;21015;-76
2022/10/09 05:46:54;;;;;;;4.90;4.17;;;6.20;99.90;;;;;;5047805;28;20469;-76
2022/10/09 05:49:20;;;;;;;7.50;3.90;;;6.20;99.90;;;;;;5047719;28;20589;-76
2022/10/09 05:51:45;;;;;;;5.53;3.33;;;6.20;99.90;;;;;;5047575;28;20769;-76
2022/10/09 05:54:14;;;;;;;4.43;3.80;;;6.20;99.90;;;;;;5047533;28;20208;-75
2022/10/09 05:56:41;;;;;;;11.50;8.67;;;6.20;99.90;;;;;;5047606;28;20210;-74
2022/10/09 05:59:09;;;;;;;7.27;5.47;;;6.20;99.90;;;;;;5048208;28;20474;-75
2022/10/09 06:01:39;;;;;;;5.70;4.20;;;6.30;99.90;;;;;;5049284;28;20444;-75
2022/10/09 06:04:08;;;;;;;4.57;3.80;;;6.10;99.90;;;;;;5047812;28;20548;-75
2022/10/09 06:06:36;;;;;;;5.50;3.90;;;6.10;99.90;;;;;;5063715;28;20474;-78
2022/10/09 06:09:04;;;;;;;4.47;3.97;;;6.20;99.90;;;;;;5072992;28;20449;-77
2022/10/09 06:11:32;;;;;;;5.33;4.37;;;6.30;99.90;;;;;;5073654;28;20457;-77
2022/10/09 06:13:59;;;;;;;11.50;4.53;;;6.30;99.90;;;;;;5051083;28;20446;-75
2022/10/09 06:16:27;;;;;;;5.33;3.93;;;6.30;99.90;;;;;;5053058;28;20989;-76
2022/10/09 06:18:53;;;;;;;6.83;5.43;;;6.30;99.90;;;;;;5052484;28;20452;-75
2022/10/09 06:21:19;;;;;;;6.10;4.77;;;6.30;99.90;;;;;;5050549;28;20927;-76
2022/10/09 06:23:52;;;;;;;5.10;4.00;;;6.40;99.90;;;;;;5050500;28;20426;-75
2022/10/09 06:26:19;;;;;;;7.70;4.07;;;6.50;99.90;;;;;;5051030;28;20505;-76
2022/10/09 06:28:45;;;;;;;5.53;3.80;;;6.60;99.90;;;;;;5051180;28;20426;-76
2022/10/09 06:31:16;;;;;;;11.60;4.27;;;6.70;99.90;;;;;;5049053;28;20449;-75
2022/10/09 06:33:43;;;;;;;8.97;3.90;;;7.00;99.90;;;;;;5050477;28;20797;-76
2022/10/09 06:36:15;;;;;;;7.77;3.90;;;7.30;99.90;;;;;;5049010;28;20435;-76
2022/10/09 06:38:41;;;;;;;8.27;5.27;;;7.40;99.90;;;;;;5050535;28;20533;-76
2022/10/09 06:41:09;;;;;;;12.37;5.20;;;7.50;99.90;;;;;;5050392;28;20420;-76
2022/10/09 06:43:35;;;;;;;7.67;4.50;;;7.60;99.90;;;;;;5050420;28;20471;-76
2022/10/09 06:46:03;;;;;;;8.40;4.10;;;7.60;99.90;;;;;;5050387;28;20503;-75
2022/10/09 06:48:32;;;;;;;7.70;4.60;;;7.70;99.90;;;;;;5048921;28;20177;-75
2022/10/09 06:51:09;;;;;;;8.70;4.73;;;7.70;99.90;;;;;;5050256;28;20859;-75
2022/10/09 06:53:36;;;;;;;6.63;4.60;;;7.80;99.90;;;;;;5033451;28;20475;-75
2022/10/09 06:56:02;;;;;;;8.80;4.60;;;7.80;99.90;;;;;;5050004;28;20439;-76
2022/10/09 06:58:28;;;;;;;7.33;4.50;;;7.90;99.90;;;;;;5049915;28;20853;-76
2022/10/09 07:01:08;;;;;;;5.73;4.23;;;7.90;99.90;;;;;;5049913;28;20472;-77
2022/10/09 07:03:35;;;;;;;6.67;4.50;;;8.00;99.90;;;;;;5049806;28;20283;-76
2022/10/09 07:06:15;;;;;;;5.20;3.87;;;8.10;99.90;;;;;;5048753;28;21061;-75
2022/10/09 07:08:43;;;;;;;6.20;4.20;;;8.20;99.90;;;;;;5049918;28;20455;-76
2022/10/09 07:11:09;;;;;;;6.90;4.30;;;8.30;99.90;;;;;;5048196;28;20424;-76
2022/10/09 07:13:35;;;;;;;7.33;4.40;;;8.30;99.90;;;;;;5048059;28;20485;-75
2022/10/09 07:16:00;;;;;;;8.40;6.03;;;8.50;99.90;;;;;;5047979;28;20692;-76
2022/10/09 07:18:26;;;;;;;5.10;4.60;;;8.50;99.90;;;;;;5049465;28;20194;-76
2022/10/09 07:20:51;;;;;;;8.47;4.50;;;8.60;99.90;;;;;;5047769;28;20187;-77
2022/10/09 07:23:17;;;;;;;6.50;3.47;;;8.80;99.90;;;;;;5049221;28;20228;-77
2022/10/09 07:25:42;;;;;;;5.60;3.10;;;8.80;99.90;;;;;;5046995;28;20234;-76
2022/10/09 07:28:08;;;;;;;7.77;3.80;;;9.00;99.90;;;;;;5048242;28;20733;-76
2022/10/09 07:30:37;;;;;;;6.23;3.50;;;9.10;99.90;;;;;;5049030;28;20295;-77
2022/10/09 07:33:02;;;;;;;5.23;3.90;;;9.20;99.90;;;;;;5049254;28;20188;-76
2022/10/09 07:35:28;;;;;;;6.93;3.07;;;9.30;99.90;;;;;;5049033;28;20438;-76
2022/10/09 07:37:54;;;;;;;7.40;5.40;;;9.50;99.90;;;;;;5047452;28;20238;-76
2022/10/09 07:40:19;;;;;;;8.80;5.67;;;9.60;99.90;;;;;;5048778;28;20263;-75
2022/10/09 07:42:45;;;;;;;7.17;4.87;;;9.70;99.90;;;;;;5048665;28;20580;-76
2022/10/09 07:45:11;;;;;;;8.30;4.80;;;9.80;99.90;;;;;;5030910;28;20207;-76
2022/10/09 07:47:36;;;;;;;4.60;3.87;;;10.00;99.90;;;;;;5049146;28;20220;-75
2022/10/09 07:50:02;;;;;;;11.63;4.00;;;10.10;99.90;;;;;;5049114;28;20272;-77
2022/10/09 07:52:27;;;;;;;6.33;3.43;;;10.30;99.90;;;;;;5048730;28;20193;-76
2022/10/09 07:54:53;;;;;;;6.20;3.33;;;10.60;99.90;;;;;;5046935;28;20207;-76
2022/10/09 07:57:18;;;;;;;6.63;2.83;;;11.00;99.90;;;;;;5030206;28;20654;-75
2022/10/09 07:59:44;;;;;;;6.87;3.53;;;11.20;99.90;;;;;;5030388;28;20201;-76
2022/10/09 08:02:10;;;;;;;9.93;3.20;;;11.50;99.90;;;;;;5046936;28;20297;-76
2022/10/09 08:04:38;;;;;;;4.77;2.37;;;11.70;99.90;;;;;;5048487;28;20230;-75
2022/10/09 08:07:04;;;;;;;6.00;3.17;;;11.90;99.90;;;;;;5048354;28;20642;-74
2022/10/09 08:09:29;;;;;;;6.43;2.40;;;12.20;99.90;;;;;;5050048;28;20416;-75
2022/10/09 08:11:56;;;;;;;8.53;3.30;;;12.20;99.90;;;;;;5048489;28;20187;-76
2022/10/09 08:14:21;;;;;;;6.40;2.93;;;12.30;99.90;;;;;;5048155;28;20205;-76
2022/10/09 08:16:47;;;;;;;6.20;2.97;;;12.40;99.90;;;;;;5048128;28;20803;-77
2022/10/09 08:19:13;;;;;;;4.27;2.70;;;12.60;99.90;;;;;;5048027;28;20270;-76
2022/10/09 08:21:38;;;;;;;4.17;2.80;;;12.70;99.90;;;;;;5048343;28;20194;-77
2022/10/09 08:24:04;;;;;;;5.70;2.80;;;12.90;99.90;;;;;;5047926;28;20219;-76
2022/10/09 08:26:30;;;;;;;3.47;2.40;;;13.10;99.90;;;;;;5048042;28;20265;-76
2022/10/09 08:28:59;;;;;;;5.83;2.70;;;13.40;99.90;;;;;;5047987;28;20215;-76
2022/10/09 08:31:25;;;;;;;5.10;2.50;;;13.50;99.90;;;;;;5048116;28;20513;-74
2022/10/09 08:33:52;;;;;;;5.57;2.90;;;13.70;99.90;;;;;;5048017;28;20449;-76
2022/10/09 08:36:18;;;;;;;2.77;2.23;;;13.70;99.90;;;;;;5048227;28;20835;-75
2022/10/09 08:38:44;;;;;;;5.17;2.30;;;13.90;99.90;;;;;;5046311;28;20434;-77
2022/10/09 08:41:23;;;;;;;3.53;2.13;;;14.10;99.90;;;;;;5047996;28;20179;-75
2022/10/09 08:43:55;;;;;;;2.37;2.17;;;14.10;99.90;;;;;;5048085;28;20300;-75
2022/10/09 08:46:40;;;;;;;5.30;2.43;;;14.40;99.90;;;;;;5047995;28;20474;-74
2022/10/09 08:49:09;;;;;;;4.40;2.40;;;14.60;99.90;;;;;;5047977;28;20508;-75
2022/10/09 08:51:37;;;;;;;5.67;2.40;;;14.70;99.90;;;;;;5048208;28;20423;-74
2022/10/09 08:54:05;;;;;;;7.57;2.50;;;15.00;99.90;;;;;;5046321;28;20438;-76
2022/10/09 08:56:32;;;;;;;2.80;1.90;;;14.90;99.70;;;;;;5047766;28;20426;-76
2022/10/09 08:58:58;;;;;;;3.43;1.80;;;15.30;99.60;;;;;;5046552;28;20497;-75
2022/10/09 09:01:47;;;;;;;5.00;2.00;;;15.70;99.90;;;;;;5048317;28;20911;-74
2022/10/09 09:04:43;;;;;;;4.27;1.83;;;16.30;96.70;;;;;;5048368;28;20235;-75
2022/10/09 09:07:48;;;;;;;3.60;2.00;;;16.70;96.30;;;;;;5048046;28;20524;-75
2022/10/09 09:10:39;;;;;;;4.97;1.90;;;17.60;92.10;;;;;;5037151;28;20489;-75
2022/10/09 09:13:41;;;;;;;8.00;1.53;;;17.70;88.00;;;;;;5047425;28;20424;-75
2022/10/09 09:16:29;;;;;;;4.93;1.80;;;17.80;88.10;;;;;;5041556;28;20965;-76
2022/10/09 09:19:15;;;;;;;3.90;1.63;;;17.60;84.60;;;;;;5047006;28;20416;-74
2022/10/09 09:21:47;;;;;;;5.73;1.70;;;17.60;87.70;;;;;;5047639;28;20431;-77
2022/10/09 09:24:17;;;;;;;4.00;1.73;;;18.10;83.20;;;;;;5048286;28;20448;-75
2022/10/09 09:26:46;;;;;;;6.53;1.77;;;18.20;80.80;;;;;;5047937;28;20495;-76
2022/10/09 09:29:16;;;;;;;7.50;1.27;;;17.80;78.60;;;;;;5047736;28;20813;-76
2022/10/09 09:31:43;;;;;;;4.57;1.87;;;17.80;80.20;;;;;;5047696;28;20797;-75
2022/10/09 09:34:19;;;;;;;3.93;1.40;;;18.00;84.50;;;;;;5046258;28;20532;-76
2022/10/09 09:36:57;;;;;;;4.30;1.50;;;18.90;78.60;;;;;;5047545;28;20421;-76
2022/10/09 09:39:27;;;;;;;3.43;1.83;;;19.80;77.00;;;;;;5047196;28;20930;-75
2022/10/09 09:42:10;;;;;;;3.40;1.40;;;19.70;73.00;;;;;;5047100;28;20421;-76
2022/10/09 09:44:42;;;;;;;2.60;1.40;;;20.70;77.40;;;;;;5047266;28;20445;-76
2022/10/09 09:47:20;;;;;;;5.50;1.57;;;20.60;71.40;;;;;;5047053;28;20457;-76
2022/10/09 09:50:03;;;;;;;5.00;2.13;;;19.60;72.90;;;;;;5047946;28;20418;-75
2022/10/09 09:52:34;;;;;;;3.33;1.40;;;19.00;73.20;;;;;;5034624;28;20497;-75
2022/10/09 09:55:00;;;;;;;3.90;1.93;;;19.40;72.80;;;;;;5051111;28;20532;-76
2022/10/09 09:57:33;;;;;;;4.83;1.83;;;18.60;74.00;;;;;;5049691;28;20557;-76
2022/10/09 10:00:20;;;;;;;2.40;1.00;;;19.20;74.30;;;;;;5049643;28;20195;-75
2022/10/09 10:02:46;;;;;;;5.33;1.83;;;20.00;74.80;;;;;;5049608;28;20437;-76
2022/10/09 10:05:24;;;;;;;3.83;1.70;;;20.20;71.10;;;;;;5049903;28;21027;-78
2022/10/09 10:07:50;;;;;;;2.80;1.60;;;19.40;74.50;;;;;;5033358;28;20226;-81
2022/10/09 10:10:25;;;;;;;2.90;1.60;;;20.40;73.30;;;;;;5051328;28;20414;-79
2022/10/09 10:12:50;;;;;;;1.70;1.17;;;20.80;70.80;;;;;;5051067;28;20422;-79
2022/10/09 10:15:28;;;;;;;8.50;1.57;;;21.00;68.70;;;;;;5051550;28;20451;-79
2022/10/09 10:18:06;;;;;;;3.60;1.50;;;21.00;67.70;;;;;;5051993;28;20183;-79
2022/10/09 10:20:42;;;;;;;4.53;1.50;;;20.30;73.20;;;;;;5051493;28;20456;-78
2022/10/09 10:23:21;;;;;;;2.70;1.57;;;20.00;75.30;;;;;;5049755;28;20944;-78
2022/10/09 10:25:46;;;;;;;4.30;1.90;;;20.70;73.00;;;;;;5050562;28;20441;-78
2022/10/09 10:28:21;;;;;;;5.73;1.50;;;21.20;73.80;;;;;;5049134;28;20473;-77
2022/10/09 10:30:49;;;;;;;7.07;1.93;;;20.40;70.80;;;;;;5049098;28;20187;-79
2022/10/09 10:33:21;;;;;;;3.73;1.50;;;20.20;71.40;;;;;;5049137;28;20483;-79
2022/10/09 10:35:51;;;;;;;3.13;1.90;;;20.30;71.80;;;;;;5049296;28;20485;-79
2022/10/09 10:38:33;;;;;;;2.83;1.30;;;19.70;73.60;;;;;;5049510;28;20866;-79
2022/10/09 10:41:18;;;;;;;3.60;1.60;;;19.40;74.00;;;;;;5051578;28;20428;-80
2022/10/09 10:43:56;;;;;;;6.83;1.57;;;19.50;74.00;;;;;;5049534;28;20785;-79
2022/10/09 10:46:27;;;;;;;3.83;1.20;;;18.90;75.40;;;;;;5049456;28;20470;-79
2022/10/09 10:48:52;;;;;;;3.20;1.77;;;19.10;76.00;;;;;;5049536;28;20919;-78
2022/10/09 10:51:21;;;;;;;3.10;1.43;;;19.40;75.60;;;;;;5049412;28;20436;-77
2022/10/09 10:53:55;;;;;;;1.97;1.27;;;19.30;75.90;;;;;;5051120;28;20187;-76
2022/10/09 10:56:45;;;;;;;7.33;1.53;;;19.40;78.80;;;;;;5051257;28;20422;-77
2022/10/09 10:59:23;;;;;;;3.10;1.23;;;20.30;77.70;;;;;;5049683;28;20442;-77
2022/10/09 11:02:29;;;;;;;2.47;0.90;;;20.60;74.60;;;;;;5051048;28;20433;-75
2022/10/09 11:05:36;;;;;;;3.47;1.20;;;20.90;75.80;;;;;;5050837;28;20445;-79
2022/10/09 11:08:07;;;;;;;2.40;1.30;;;21.10;72.00;;;;;;5007816;28;20483;-76
2022/10/09 11:10:55;;;;;;;5.40;1.47;;;21.30;75.40;;;;;;5008077;28;20934;-77
2022/10/09 11:13:33;;;;;;;2.27;1.30;;;21.50;71.80;;;;;;5036274;28;20851;-77
2022/10/09 11:16:27;;;;;;;2.30;1.20;;;21.70;69.60;;;;;;5050117;28;20441;-77
2022/10/09 11:19:19;;;;;;;7.10;1.60;;;21.40;68.80;;;;;;5048806;28;20457;-76
2022/10/09 11:22:05;;;;;;;3.90;1.47;;;21.60;70.20;;;;;;5050425;28;20461;-77
2022/10/09 11:24:55;;;;;;;2.30;1.20;;;21.30;70.00;;;;;;5048691;28;20943;-76
2022/10/09 11:27:27;;;;;;;3.43;1.30;;;21.00;69.40;;;;;;5050093;28;20468;-76
2022/10/09 11:30:00;;;;;;;1.47;1.10;;;20.90;70.50;;;;;;5048750;28;20932;-77
2022/10/09 11:32:31;;;;;;;3.30;1.00;;;20.20;69.70;;;;;;5048569;28;20722;-77
2022/10/09 11:35:22;;;;;;;3.33;1.20;;;20.00;71.80;;;;;;5049863;28;20434;-77
2022/10/09 11:38:03;;;;;;;3.80;1.20;;;20.40;71.50;;;;;;5049812;28;20425;-78
2022/10/09 11:40:33;;;;;;;2.20;0.97;;;20.60;70.80;;;;;;5049727;28;20509;-78
2022/10/09 11:43:25;;;;;;;3.60;1.63;;;20.70;70.10;;;;;;5049877;28;20426;-78
2022/10/09 11:46:00;;;;;;;2.27;1.67;;;20.50;74.40;;;;;;5049800;28;20952;-77
2022/10/09 11:48:31;;;;;;;2.50;1.13;;;20.30;72.50;;;;;;5047957;28;20442;-80
2022/10/09 11:51:07;;;;;;;1.27;1.17;;;19.60;74.30;;;;;;5049804;28;20410;-77
2022/10/09 11:53:35;;;;;;;3.73;1.10;;;19.00;75.40;;;;;;5047777;28;20425;-80
2022/10/09 11:56:06;;;;;;;4.37;1.30;;;19.30;76.30;;;;;;5031825;28;20521;-78
2022/10/09 11:58:32;;;;;;;2.30;1.03;;;19.40;76.90;;;;;;5049057;28;20438;-78
2022/10/09 12:01:11;;;;;;;2.70;1.23;;;19.80;75.60;;;;;;5049383;28;20435;-78
2022/10/09 12:03:38;;;;;;;3.47;1.40;;;19.50;76.70;;;;;;5048059;28;20849;-77
2022/10/09 12:06:13;;;;;;;1.47;0.93;;;19.80;76.20;;;;;;5049059;28;20934;-77
2022/10/09 12:08:53;;;;;;;8.27;1.50;;;19.60;77.00;;;;;;5049120;28;20502;-80
2022/10/09 12:11:19;;;;;;;1.90;1.30;;;19.60;78.70;;;;;;5032501;28;20430;-76
2022/10/09 12:13:52;;;;;;;1.97;1.00;;;19.80;79.10;;;;;;5047235;28;20989;-78
2022/10/09 12:16:37;;;;;;;1.77;0.93;;;20.00;77.40;;;;;;5047752;28;20483;-78
2022/10/09 12:19:13;;;;;;;3.20;1.67;;;20.10;77.10;;;;;;5049836;28;20636;-78
2022/10/09 12:21:47;;;;;;;1.80;1.10;;;20.00;75.90;;;;;;5047895;28;20440;-77
2022/10/09 12:24:20;;;;;;;5.67;1.20;;;19.80;77.20;;;;;;5048925;28;21289;-76
2022/10/09 12:26:48;;;;;;;2.43;1.63;;;19.80;77.00;;;;;;5047849;28;20477;-78
2022/10/09 12:29:27;;;;;;;3.47;1.60;;;19.70;77.00;;;;;;5056843;28;20429;-79
2022/10/09 12:31:58;;;;;;;4.83;1.40;;;19.60;77.90;;;;;;5063708;28;20468;-77
2022/10/09 12:34:46;;;;;;;3.67;1.13;;;19.30;78.60;;;;;;5050474;28;20437;-80
2022/10/09 12:37:13;;;;;;;4.47;1.37;;;19.30;82.10;;;;;;5049282;28;20932;-75
2022/10/09 12:39:39;;;;;;;3.03;1.30;;;19.00;81.00;;;;;;5052366;28;20414;-80
2022/10/09 12:42:07;;;;;;;4.60;1.57;;;19.10;83.10;;;;;;5049614;28;20415;-75
2022/10/09 12:44:38;;;;;;;2.13;1.33;;;18.90;84.80;;;;;;5047471;28;20446;-75
2022/10/09 12:47:15;;;;;;;3.03;1.30;;;18.70;84.40;;;;;;5048723;28;20466;-76
2022/10/09 12:49:41;;;;;;;4.00;1.40;;;18.30;86.30;;;;;;5049610;28;20425;-77
2022/10/09 12:52:14;;;;;;;2.47;1.57;;;18.20;88.50;;;;;;5030825;28;20429;-78
2022/10/09 12:54:42;;;;;;;4.20;1.50;;;18.30;86.90;;;;;;5049446;28;20688;-79
2022/10/09 12:57:13;;;;;;;4.37;1.40;;;18.00;87.40;;;;;;5048264;28;20796;-78
2022/10/09 12:59:40;;;;;;;3.40;1.73;;;17.50;89.00;;;;;;5047556;28;20431;-77
2022/10/09 13:02:16;;;;;;;2.53;1.53;;;17.30;91.40;;;;;;5030993;28;20545;-78
2022/10/09 13:04:55;;;;;;;4.33;1.57;;;17.30;91.70;;;;;;5048407;28;20500;-78
2022/10/09 13:07:25;;;;;;;6.57;1.27;;;17.00;92.50;;;;;;5047202;28;20469;-80
2022/10/09 13:09:58;;;;;;;3.73;1.67;;;17.20;93.30;;;;;;5048053;28;20763;-79